Time;durP1;ratioP1;P1;durP2;ratioP2;P2;SDS_P1;SDS_P2;PMS_P1;PMS_P2;Temp;Humidity;BMP_temperature;BMP_pressure;BME280_temperature;BME280_humidity;BME280_pressure;Samples;Min_cycle;Max_cycle;Signal;HPM_P1;HPM_P2
2023/05/16 00:00:52;;;;;;;2.9;1.6;;;;;;;-132.3;98.2;76960;;;;
2023/05/16 00:10:50;;;;;;;2.9;1.2;;;;;;;-132.3;98.3;76960;;;;
2023/05/16 00:21:50;;;;;;;2.9;1.2;;;;;;;-132.3;97.9;76960;;;;
2023/05/16 00:31:50;;;;;;;7.3;2.7;;;;;;;-132.3;96.9;76950;;;;
2023/05/16 00:41:50;;;;;;;7.3;2.7;;;;;;;-132.3;96.2;76930;;;;
2023/05/16 00:51:50;;;;;;;7.3;2.7;;;;;;;-132.3;95.9;76930;;;;
2023/05/16 01:02:52;;;;;;;3.6;1.8;;;;;;;-132.3;95.9;76940;;;;
2023/05/16 01:13:50;;;;;;;3.6;1.8;;;;;;;-132.3;95.9;76930;;;;
2023/05/16 01:23:50;;;;;;;3.6;1.8;;;;;;;-132.3;95.9;76940;;;;
2023/05/16 01:33:50;;;;;;;3.2;1.7;;;;;;;-132.3;96.2;76950;;;;
2023/05/16 01:43:50;;;;;;;3.2;1.7;;;;;;;-132.3;96.2;76960;;;;
2023/05/16 01:54:50;;;;;;;3.2;1.7;;;;;;;-132.3;96.2;76960;;;;
2023/05/16 02:04:50;;;;;;;3.8;1.9;;;;;;;-132.3;96.7;76970;;;;
2023/05/16 02:15:50;;;;;;;3.8;1.9;;;;;;;-132.3;96.1;76970;;;;
2023/05/16 02:25:50;;;;;;;3.8;1.9;;;;;;;-132.3;95.6;76980;;;;
2023/05/16 02:36:50;;;;;;;4.9;2.2;;;;;;;-132.3;96.1;77010;;;;
2023/05/16 02:47:50;;;;;;;4.9;2.2;;;;;;;-132.3;96.1;77050;;;;
2023/05/16 02:57:50;;;;;;;4.9;2.2;;;;;;;-132.3;96.6;77100;;;;
2023/05/16 03:07:50;;;;;;;5.7;2.5;;;;;;;-132.3;97.8;77130;;;;
2023/05/16 03:17:50;;;;;;;5.7;2.5;;;;;;;-132.3;98.5;77130;;;;
2023/05/16 03:28:50;;;;;;;5.7;2.5;;;;;;;-132.3;99.4;77140;;;;
2023/05/16 03:39:50;;;;;;;5.1;2.3;;;;;;;-132.3;100;77160;;;;
2023/05/16 03:50:50;;;;;;;5.1;2.3;;;;;;;-132.3;100;77150;;;;
2023/05/16 04:00:50;;;;;;;5.3;3.1;;;;;;;-132.3;100;77120;;;;
2023/05/16 04:11:50;;;;;;;5.3;3.1;;;;;;;-132.3;100;77110;;;;
2023/05/16 04:22:50;;;;;;;5.3;3.1;;;;;;;-132.3;100;77080;;;;
2023/05/16 04:32:50;;;;;;;6.5;4.1;;;;;;;-132.3;100;77050;;;;
2023/05/16 04:43:50;;;;;;;6.5;4.1;;;;;;;-132.3;99.9;77010;;;;
2023/05/16 04:53:50;;;;;;;6.5;4.1;;;;;;;-132.3;98.9;76960;;;;
2023/05/16 05:03:50;;;;;;;8.3;4.9;;;;;;;-132.3;97.3;76910;;;;
2023/05/16 05:13:50;;;;;;;8.3;4.9;;;;;;;-132.3;96.5;76840;;;;
2023/05/16 05:23:50;;;;;;;8.3;4.9;;;;;;;-132.3;91.4;76740;;;;
2023/05/16 05:33:50;;;;;;;7.3;4.4;;;;;;;-132.3;85.9;76660;;;;
2023/05/16 05:43:50;;;;;;;7.3;4.4;;;;;;;-132.3;85;76610;;;;
2023/05/16 05:54:50;;;;;;;7.3;4.4;;;;;;;-132.3;82.3;76540;;;;
2023/05/16 06:04:50;;;;;;;5.9;3.8;;;;;;;-132.3;80.6;76500;;;;
2023/05/16 06:15:50;;;;;;;5.9;3.8;;;;;;;-132.3;79.8;76450;;;;
2023/05/16 06:25:50;;;;;;;5.9;3.8;;;;;;;-132.3;76.7;76420;;;;
2023/05/16 06:36:50;;;;;;;6.9;3.6;;;;;;;-132.3;77;76360;;;;
2023/05/16 06:46:50;;;;;;;6.9;3.6;;;;;;;-132.3;75;76360;;;;
2023/05/16 06:56:50;;;;;;;6.9;3.6;;;;;;;-132.3;73.8;76350;;;;
2023/05/16 07:07:50;;;;;;;9.6;5.7;;;;;;;-132.3;73;76320;;;;
2023/05/16 07:17:50;;;;;;;9.6;5.7;;;;;;;-132.3;72.8;76310;;;;
2023/05/16 07:27:50;;;;;;;10.4;5.7;;;;;;;-132.3;72;76270;;;;
2023/05/16 07:38:50;;;;;;;10.4;5.7;;;;;;;-132.3;72.9;76190;;;;
2023/05/16 07:48:50;;;;;;;10.4;5.7;;;;;;;-132.3;71;76170;;;;
2023/05/16 07:58:50;;;;;;;8.2;5.3;;;;;;;-132.3;68.2;76090;;;;
2023/05/16 08:09:50;;;;;;;8.2;5.3;;;;;;;-132.3;66.6;76020;;;;
2023/05/16 08:20:50;;;;;;;8.2;5.3;;;;;;;-132.3;64.7;75980;;;;
2023/05/16 08:30:50;;;;;;;7.9;5.4;;;;;;;-132.3;63.5;75990;;;;
2023/05/16 08:41:50;;;;;;;7.9;5.4;;;;;;;-132.3;64.9;75920;;;;
2023/05/16 08:51:50;;;;;;;7.9;5.4;;;;;;;-132.3;63.1;75910;;;;
2023/05/16 09:02:50;;;;;;;7.7;5;;;;;;;-132.3;60.6;75870;;;;
2023/05/16 09:12:50;;;;;;;7.7;5;;;;;;;-132.3;62.5;75820;;;;
2023/05/16 09:23:50;;;;;;;7.7;5;;;;;;;-132.3;62.7;75780;;;;
2023/05/16 09:34:51;;;;;;;7.8;4.9;;;;;;;-132.3;60.2;75780;;;;
2023/05/16 09:44:50;;;;;;;7.8;4.9;;;;;;;-132.3;58.1;75780;;;;
2023/05/16 09:55:50;;;;;;;7.8;4.9;;;;;;;-132.3;57.4;75740;;;;
2023/05/16 10:05:51;;;;;;;7.7;5.2;;;;;;;-132.3;56.8;75730;;;;
2023/05/16 10:15:50;;;;;;;7.7;5.2;;;;;;;-132.3;57;75700;;;;
2023/05/16 10:26:50;;;;;;;7.7;5.2;;;;;;;-132.3;58;75670;;;;
2023/05/16 10:37:50;;;;;;;6.9;4.9;;;;;;;-132.3;54.1;75630;;;;
2023/05/16 10:47:50;;;;;;;6.9;4.9;;;;;;;-132.3;56.6;75630;;;;
2023/05/16 10:57:50;;;;;;;6.9;4.9;;;;;;;-132.3;53.6;75580;;;;
2023/05/16 11:08:50;;;;;;;10.5;5.1;;;;;;;-132.3;50.7;75560;;;;
2023/05/16 11:19:50;;;;;;;10.5;5.1;;;;;;;-132.3;51.3;75550;;;;
2023/05/16 11:30:50;;;;;;;6.8;4;;;;;;;-132.3;51.5;75600;;;;
2023/05/16 11:40:50;;;;;;;6.8;4;;;;;;;-132.3;52.1;75630;;;;
2023/05/16 11:51:51;;;;;;;6.8;4;;;;;;;-132.3;53.8;75670;;;;
2023/05/16 12:02:50;;;;;;;7.3;3.9;;;;;;;-132.3;54.8;75770;;;;
2023/05/16 12:12:51;;;;;;;7.3;3.9;;;;;;;-132.3;57.2;75810;;;;
2023/05/16 12:23:50;;;;;;;7.3;3.9;;;;;;;-132.3;60.7;75870;;;;
2023/05/16 12:34:50;;;;;;;6.9;4.8;;;;;;;-132.3;61.3;75890;;;;
2023/05/16 12:44:50;;;;;;;6.9;4.8;;;;;;;-132.3;61.3;75890;;;;
2023/05/16 12:54:50;;;;;;;6.9;4.8;;;;;;;-132.3;61.4;75890;;;;
2023/05/16 13:04:50;;;;;;;9.8;5;;;;;;;-132.3;60.2;75870;;;;
2023/05/16 13:14:50;;;;;;;9.8;5;;;;;;;-132.3;61.9;75920;;;;
2023/05/16 13:25:51;;;;;;;9.8;5;;;;;;;-132.3;66.1;75960;;;;
2023/05/16 13:36:50;;;;;;;6.5;5.1;;;;;;;-132.3;68.7;75990;;;;
2023/05/16 13:47:50;;;;;;;6.5;5.1;;;;;;;-132.3;71.3;75970;;;;
2023/05/16 13:57:50;;;;;;;8;5.7;;;;;;;-132.3;71.3;75960;;;;
2023/05/16 14:08:50;;;;;;;8;5.7;;;;;;;-132.3;73.3;75980;;;;
2023/05/16 14:18:50;;;;;;;8;5.7;;;;;;;-132.3;73.9;76000;;;;
2023/05/16 14:28:50;;;;;;;9.5;5.8;;;;;;;-132.3;71.6;76050;;;;
2023/05/16 14:39:51;;;;;;;9.5;5.8;;;;;;;-132.3;71.8;76130;;;;
2023/05/16 14:49:51;;;;;;;9.5;5.8;;;;;;;-132.3;72.3;76150;;;;
2023/05/16 14:59:50;;;;;;;9.6;6.8;;;;;;;-132.3;74.7;76220;;;;
2023/05/16 15:09:50;;;;;;;9.6;6.8;;;;;;;-132.3;75.5;76230;;;;
2023/05/16 15:19:52;;;;;;;9.6;6.8;;;;;;;-132.3;79.1;76250;;;;
2023/05/16 15:30:50;;;;;;;10.4;6.5;;;;;;;-132.3;80.6;76230;;;;
2023/05/16 15:40:51;;;;;;;10.4;6.5;;;;;;;-132.3;81.7;76240;;;;
2023/05/16 15:51:50;;;;;;;10.4;6.5;;;;;;;-132.3;82.9;76300;;;;
2023/05/16 16:01:50;;;;;;;11.6;7.8;;;;;;;-132.3;86.2;76360;;;;
2023/05/16 16:11:54;;;;;;;7.6;5.8;;;;;;;-132.3;86.8;76410;;;;
2023/05/16 16:22:50;;;;;;;7.6;5.8;;;;;;;-132.3;86.9;76420;;;;
2023/05/16 16:32:50;;;;;;;7.6;5.8;;;;;;;-132.3;89;76440;;;;
2023/05/16 16:43:50;;;;;;;8;6.1;;;;;;;-132.3;89.3;76450;;;;
2023/05/16 16:53:50;;;;;;;8;6.1;;;;;;;-132.3;90.8;76460;;;;
2023/05/16 17:03:50;;;;;;;8;6.1;;;;;;;-132.3;89.4;76500;;;;
2023/05/16 17:13:50;;;;;;;8.6;5.8;;;;;;;-132.3;90.6;76550;;;;
2023/05/16 17:24:50;;;;;;;8.6;5.8;;;;;;;-132.3;92.3;76570;;;;
2023/05/16 17:34:52;;;;;;;8.6;5.8;;;;;;;-132.3;93.6;76590;;;;
2023/05/16 17:44:50;;;;;;;8.1;5.4;;;;;;;-132.3;94.2;76610;;;;
2023/05/16 17:54:50;;;;;;;8.1;5.4;;;;;;;-132.3;94.2;76610;;;;
2023/05/16 18:04:50;;;;;;;8.1;5.4;;;;;;;-132.3;95;76630;;;;
2023/05/16 18:14:50;;;;;;;8.6;6.6;;;;;;;-132.3;95.3;76640;;;;
2023/05/16 18:25:50;;;;;;;8.6;6.6;;;;;;;-132.3;96.4;76660;;;;
2023/05/16 18:35:50;;;;;;;8.6;6.6;;;;;;;-132.3;97;76660;;;;
2023/05/16 18:45:50;;;;;;;15.3;13.1;;;;;;;-132.3;98.4;76670;;;;
2023/05/16 18:55:50;;;;;;;15.3;13.1;;;;;;;-132.3;98.1;76680;;;;
2023/05/16 19:05:50;;;;;;;15.3;13.1;;;;;;;-132.3;98.8;76690;;;;
2023/05/16 19:15:52;;;;;;;9.6;7.9;;;;;;;-132.3;99.6;76700;;;;
2023/05/16 19:26:50;;;;;;;9.6;7.9;;;;;;;-132.3;100;76710;;;;
2023/05/16 19:36:51;;;;;;;9.6;7.9;;;;;;;-132.3;100;76710;;;;
2023/05/16 19:47:50;;;;;;;12.4;10.6;;;;;;;-132.3;100;76720;;;;
2023/05/16 19:57:51;;;;;;;12.4;10.6;;;;;;;-132.3;100;76710;;;;
2023/05/16 20:07:52;;;;;;;15.1;13.1;;;;;;;-132.3;100;76710;;;;
2023/05/16 20:18:50;;;;;;;15.1;13.1;;;;;;;-132.3;100;76720;;;;
2023/05/16 20:29:51;;;;;;;15.1;13.1;;;;;;;-132.3;100;76710;;;;
2023/05/16 20:39:50;;;;;;;16.6;13.6;;;;;;;-132.3;100;76700;;;;
2023/05/16 20:49:50;;;;;;;16.6;13.6;;;;;;;-132.3;100;76700;;;;
2023/05/16 20:59:50;;;;;;;16.6;13.6;;;;;;;-132.3;100;76700;;;;
2023/05/16 21:10:50;;;;;;;14.1;12;;;;;;;-132.3;100;76700;;;;
2023/05/16 21:20:50;;;;;;;14.1;12;;;;;;;-132.3;100;76700;;;;
2023/05/16 21:30:50;;;;;;;14.1;12;;;;;;;-132.3;100;76710;;;;
2023/05/16 21:41:50;;;;;;;12.1;9.6;;;;;;;-132.3;100;76710;;;;
2023/05/16 21:52:50;;;;;;;12.1;9.6;;;;;;;-132.3;100;76700;;;;
2023/05/16 22:03:50;;;;;;;12.1;9.6;;;;;;;-132.3;100;76710;;;;
2023/05/16 22:13:50;;;;;;;11;8.4;;;;;;;-132.3;100;76710;;;;
2023/05/16 22:24:50;;;;;;;11;8.4;;;;;;;-132.3;100;76690;;;;
2023/05/16 22:34:51;;;;;;;11;8.4;;;;;;;-132.3;100;76690;;;;
2023/05/16 22:45:50;;;;;;;11.6;8.5;;;;;;;-132.3;100;76680;;;;
2023/05/16 22:55:50;;;;;;;11.6;8.5;;;;;;;-132.3;100;76680;;;;
2023/05/16 23:05:50;;;;;;;11.6;8.5;;;;;;;-132.3;100;76680;;;;
2023/05/16 23:15:50;;;;;;;11.9;8.7;;;;;;;-132.3;100;76680;;;;
2023/05/16 23:25:50;;;;;;;11.9;8.7;;;;;;;-132.3;100;76680;;;;
2023/05/16 23:36:50;;;;;;;11.9;8.7;;;;;;;-132.3;100;76690;;;;
2023/05/16 23:47:50;;;;;;;9.7;8.1;;;;;;;-132.3;100;76680;;;;
2023/05/16 23:58:50;;;;;;;9.7;8.1;;;;;;;-132.3;100;76690;;;;
